sensor_id;sensor_type;location;lat;lon;timestamp;pressure;altitude;pressure_sealevel;temperature;humidity
11395;BME280;5753;54.402;10.220;2023-08-08T00:01:40;100519.22;;;21.04;46.49
11395;BME280;5753;54.402;10.220;2023-08-08T00:04:09;100512.66;;;20.63;47.33
11395;BME280;5753;54.402;10.220;2023-08-08T00:06:36;100525.41;;;21.29;46.39
11395;BME280;5753;54.402;10.220;2023-08-08T00:09:02;100525.97;;;22.37;44.24
11395;BME280;5753;54.402;10.220;2023-08-08T00:11:30;100517.28;;;22.12;44.15
11395;BME280;5753;54.402;10.220;2023-08-08T00:13:56;100516.38;;;21.63;44.76
11395;BME280;5753;54.402;10.220;2023-08-08T00:16:23;100509.56;;;20.19;46.85
11395;BME280;5753;54.402;10.220;2023-08-08T00:18:51;100520.16;;;20.73;45.97
11395;BME280;5753;54.402;10.220;2023-08-08T00:21:19;100507.38;;;21.70;43.55
11395;BME280;5753;54.402;10.220;2023-08-08T00:23:45;100509.72;;;21.00;44.42
11395;BME280;5753;54.402;10.220;2023-08-08T00:26:12;100520.69;;;22.14;42.39
11395;BME280;5753;54.402;10.220;2023-08-08T00:28:38;100513.59;;;20.88;43.74
11395;BME280;5753;54.402;10.220;2023-08-08T00:31:04;100521.84;;;21.82;42.48
11395;BME280;5753;54.402;10.220;2023-08-08T00:33:30;100518.19;;;21.08;42.80
11395;BME280;5753;54.402;10.220;2023-08-08T00:35:56;100506.56;;;21.17;41.36
11395;BME280;5753;54.402;10.220;2023-08-08T00:38:22;100524.28;;;21.36;41.75
11395;BME280;5753;54.402;10.220;2023-08-08T00:40:49;100506.28;;;21.76;40.31
11395;BME280;5753;54.402;10.220;2023-08-08T00:43:15;100519.09;;;21.07;41.62
11395;BME280;5753;54.402;10.220;2023-08-08T00:45:42;100508.13;;;20.96;41.42
11395;BME280;5753;54.402;10.220;2023-08-08T00:48:10;100511.03;;;21.13;41.58
11395;BME280;5753;54.402;10.220;2023-08-08T00:50:37;100494.88;;;22.02;40.26
11395;BME280;5753;54.402;10.220;2023-08-08T00:53:04;100497.53;;;20.99;41.71
11395;BME280;5753;54.402;10.220;2023-08-08T00:55:31;100500.53;;;21.91;40.51
11395;BME280;5753;54.402;10.220;2023-08-08T00:57:58;100502.97;;;20.93;41.91
11395;BME280;5753;54.402;10.220;2023-08-08T01:00:24;100505.25;;;21.31;41.61
11395;BME280;5753;54.402;10.220;2023-08-08T01:02:50;100515.09;;;21.50;41.11
11395;BME280;5753;54.402;10.220;2023-08-08T01:05:17;100527.25;;;21.26;42.07
11395;BME280;5753;54.402;10.220;2023-08-08T01:07:54;100519.91;;;21.87;41.03
11395;BME280;5753;54.402;10.220;2023-08-08T01:10:31;100521.34;;;20.34;43.81
11395;BME280;5753;54.402;10.220;2023-08-08T01:13:19;100518.41;;;20.15;44.15
11395;BME280;5753;54.402;10.220;2023-08-08T01:15:48;100511.03;;;21.13;42.60
11395;BME280;5753;54.402;10.220;2023-08-08T01:18:16;100506.97;;;20.77;43.14
11395;BME280;5753;54.402;10.220;2023-08-08T01:20:43;100510.16;;;21.41;42.13
11395;BME280;5753;54.402;10.220;2023-08-08T01:23:36;100507.19;;;21.76;41.57
11395;BME280;5753;54.402;10.220;2023-08-08T01:26:07;100508.44;;;21.40;42.32
11395;BME280;5753;54.402;10.220;2023-08-08T01:28:34;100502.41;;;20.83;43.33
11395;BME280;5753;54.402;10.220;2023-08-08T01:31:00;100503.06;;;21.16;43.07
11395;BME280;5753;54.402;10.220;2023-08-08T01:33:26;100496.00;;;20.36;44.55
11395;BME280;5753;54.402;10.220;2023-08-08T01:36:20;100491.22;;;21.82;41.27
11395;BME280;5753;54.402;10.220;2023-08-08T01:38:48;100488.38;;;21.39;42.58
11395;BME280;5753;54.402;10.220;2023-08-08T01:41:17;100494.78;;;20.48;44.72
11395;BME280;5753;54.402;10.220;2023-08-08T01:43:45;100492.81;;;20.84;43.92
11395;BME280;5753;54.402;10.220;2023-08-08T01:46:11;100497.75;;;20.35;44.90
11395;BME280;5753;54.402;10.220;2023-08-08T01:48:38;100487.81;;;21.02;43.34
11395;BME280;5753;54.402;10.220;2023-08-08T01:51:04;100480.81;;;20.75;43.74
11395;BME280;5753;54.402;10.220;2023-08-08T01:53:30;100482.81;;;21.21;43.49
11395;BME280;5753;54.402;10.220;2023-08-08T01:55:56;100486.25;;;20.69;43.73
11395;BME280;5753;54.402;10.220;2023-08-08T01:58:22;100484.34;;;21.28;42.57
11395;BME280;5753;54.402;10.220;2023-08-08T02:00:48;100479.19;;;21.25;42.75
11395;BME280;5753;54.402;10.220;2023-08-08T02:03:14;100480.41;;;20.89;43.53
11395;BME280;5753;54.402;10.220;2023-08-08T02:05:40;100489.69;;;21.75;41.62
11395;BME280;5753;54.402;10.220;2023-08-08T02:08:06;100496.44;;;21.06;42.45
11395;BME280;5753;54.402;10.220;2023-08-08T02:10:33;100483.50;;;21.53;41.99
11395;BME280;5753;54.402;10.220;2023-08-08T02:12:59;100482.75;;;21.49;42.10
11395;BME280;5753;54.402;10.220;2023-08-08T02:15:25;100488.44;;;21.62;41.67
11395;BME280;5753;54.402;10.220;2023-08-08T02:17:51;100482.13;;;21.43;42.10
11395;BME280;5753;54.402;10.220;2023-08-08T02:20:17;100482.38;;;20.81;42.83
11395;BME280;5753;54.402;10.220;2023-08-08T02:22:44;100474.03;;;20.10;44.51
11395;BME280;5753;54.402;10.220;2023-08-08T02:25:10;100467.50;;;21.60;42.12
11395;BME280;5753;54.402;10.220;2023-08-08T02:27:36;100477.03;;;21.63;42.23
11395;BME280;5753;54.402;10.220;2023-08-08T02:30:02;100470.00;;;21.63;42.29
11395;BME280;5753;54.402;10.220;2023-08-08T02:32:28;100458.34;;;22.42;40.75
11395;BME280;5753;54.402;10.220;2023-08-08T02:34:54;100470.13;;;21.60;42.02
11395;BME280;5753;54.402;10.220;2023-08-08T02:37:20;100469.19;;;20.57;44.23
11395;BME280;5753;54.402;10.220;2023-08-08T02:39:46;100472.22;;;21.51;42.98
11395;BME280;5753;54.402;10.220;2023-08-08T02:42:12;100455.09;;;21.14;44.02
11395;BME280;5753;54.402;10.220;2023-08-08T02:44:38;100452.41;;;20.35;45.09
11395;BME280;5753;54.402;10.220;2023-08-08T02:47:05;100453.41;;;20.87;44.28
11395;BME280;5753;54.402;10.220;2023-08-08T02:49:31;100460.78;;;21.27;43.65
11395;BME280;5753;54.402;10.220;2023-08-08T02:51:59;100470.94;;;20.57;44.58
11395;BME280;5753;54.402;10.220;2023-08-08T02:54:26;100458.31;;;20.41;45.27
11395;BME280;5753;54.402;10.220;2023-08-08T02:56:52;100454.97;;;20.36;45.71
11395;BME280;5753;54.402;10.220;2023-08-08T02:59:18;100459.31;;;21.18;44.57
11395;BME280;5753;54.402;10.220;2023-08-08T03:01:44;100453.66;;;20.51;45.80
11395;BME280;5753;54.402;10.220;2023-08-08T03:04:11;100451.47;;;21.45;44.23
11395;BME280;5753;54.402;10.220;2023-08-08T03:06:37;100447.91;;;20.40;45.90
11395;BME280;5753;54.402;10.220;2023-08-08T03:09:03;100454.22;;;20.89;45.57
11395;BME280;5753;54.402;10.220;2023-08-08T03:11:29;100445.91;;;20.74;45.97
11395;BME280;5753;54.402;10.220;2023-08-08T03:13:55;100435.13;;;21.10;45.58
11395;BME280;5753;54.402;10.220;2023-08-08T03:16:21;100449.09;;;21.11;45.89
11395;BME280;5753;54.402;10.220;2023-08-08T03:18:47;100438.34;;;20.65;46.82
11395;BME280;5753;54.402;10.220;2023-08-08T03:21:13;100441.69;;;20.70;47.22
11395;BME280;5753;54.402;10.220;2023-08-08T03:23:39;100436.16;;;21.32;46.09
11395;BME280;5753;54.402;10.220;2023-08-08T03:26:05;100433.56;;;20.78;47.59
11395;BME280;5753;54.402;10.220;2023-08-08T03:28:31;100428.19;;;20.56;48.09
11395;BME280;5753;54.402;10.220;2023-08-08T03:30:58;100434.97;;;20.90;47.50
11395;BME280;5753;54.402;10.220;2023-08-08T03:33:24;100427.34;;;20.26;49.29
11395;BME280;5753;54.402;10.220;2023-08-08T03:35:50;100433.66;;;21.29;46.55
11395;BME280;5753;54.402;10.220;2023-08-08T03:38:16;100430.72;;;21.62;46.24
11395;BME280;5753;54.402;10.220;2023-08-08T03:40:42;100430.97;;;20.78;48.10
11395;BME280;5753;54.402;10.220;2023-08-08T03:43:08;100432.22;;;21.69;46.37
11395;BME280;5753;54.402;10.220;2023-08-08T03:45:34;100443.28;;;20.48;49.06
11395;BME280;5753;54.402;10.220;2023-08-08T03:48:00;100429.47;;;21.22;48.14
11395;BME280;5753;54.402;10.220;2023-08-08T03:50:26;100431.59;;;20.58;49.80
11395;BME280;5753;54.402;10.220;2023-08-08T03:52:52;100432.94;;;20.98;49.27
11395;BME280;5753;54.402;10.220;2023-08-08T03:55:19;100440.44;;;19.97;51.89
11395;BME280;5753;54.402;10.220;2023-08-08T03:57:45;100430.31;;;21.24;49.67
11395;BME280;5753;54.402;10.220;2023-08-08T04:00:11;100421.59;;;21.24;50.08
11395;BME280;5753;54.402;10.220;2023-08-08T04:02:37;100431.53;;;21.64;48.90
11395;BME280;5753;54.402;10.220;2023-08-08T04:05:04;100431.28;;;21.47;50.08
11395;BME280;5753;54.402;10.220;2023-08-08T04:07:30;100421.41;;;21.28;49.93
11395;BME280;5753;54.402;10.220;2023-08-08T04:09:57;100434.81;;;20.40;51.83
11395;BME280;5753;54.402;10.220;2023-08-08T04:12:23;100428.13;;;21.11;50.18
11395;BME280;5753;54.402;10.220;2023-08-08T04:14:49;100424.81;;;21.05;50.28
11395;BME280;5753;54.402;10.220;2023-08-08T04:17:15;100427.84;;;21.45;49.11
11395;BME280;5753;54.402;10.220;2023-08-08T04:19:41;100428.66;;;21.47;49.34
11395;BME280;5753;54.402;10.220;2023-08-08T04:22:07;100424.91;;;21.54;48.71
11395;BME280;5753;54.402;10.220;2023-08-08T04:24:33;100429.47;;;21.72;48.57
11395;BME280;5753;54.402;10.220;2023-08-08T04:26:59;100422.91;;;21.60;48.59
11395;BME280;5753;54.402;10.220;2023-08-08T04:29:25;100425.69;;;22.04;47.92
11395;BME280;5753;54.402;10.220;2023-08-08T04:31:51;100436.69;;;21.90;48.28
11395;BME280;5753;54.402;10.220;2023-08-08T04:34:18;100444.09;;;22.03;47.99
11395;BME280;5753;54.402;10.220;2023-08-08T04:36:44;100430.84;;;21.59;48.68
11395;BME280;5753;54.402;10.220;2023-08-08T04:39:10;100441.81;;;21.93;48.54
11395;BME280;5753;54.402;10.220;2023-08-08T04:41:36;100438.09;;;22.22;48.23
11395;BME280;5753;54.402;10.220;2023-08-08T04:44:02;100425.81;;;21.53;50.48
11395;BME280;5753;54.402;10.220;2023-08-08T04:46:28;100436.50;;;22.18;48.82
11395;BME280;5753;54.402;10.220;2023-08-08T04:48:54;100436.00;;;21.37;51.20
11395;BME280;5753;54.402;10.220;2023-08-08T04:51:20;100437.63;;;21.64;50.73
11395;BME280;5753;54.402;10.220;2023-08-08T04:53:46;100439.78;;;21.53;51.39
11395;BME280;5753;54.402;10.220;2023-08-08T04:56:12;100437.88;;;21.07;52.50
11395;BME280;5753;54.402;10.220;2023-08-08T04:58:38;100429.38;;;21.98;50.85
11395;BME280;5753;54.402;10.220;2023-08-08T05:01:04;100434.22;;;22.33;49.35
11395;BME280;5753;54.402;10.220;2023-08-08T05:03:30;100439.72;;;22.48;49.51
11395;BME280;5753;54.402;10.220;2023-08-08T05:05:56;100440.28;;;21.13;52.64
11395;BME280;5753;54.402;10.220;2023-08-08T05:08:24;100433.66;;;21.29;51.86
11395;BME280;5753;54.402;10.220;2023-08-08T05:10:50;100445.13;;;21.98;51.03
11395;BME280;5753;54.402;10.220;2023-08-08T05:13:16;100438.03;;;22.00;51.13
11395;BME280;5753;54.402;10.220;2023-08-08T05:15:43;100432.81;;;22.68;49.54
11395;BME280;5753;54.402;10.220;2023-08-08T05:18:09;100427.56;;;22.46;49.64
11395;BME280;5753;54.402;10.220;2023-08-08T05:20:35;100424.06;;;22.67;49.50
11395;BME280;5753;54.402;10.220;2023-08-08T05:23:01;100422.88;;;22.54;49.46
11395;BME280;5753;54.402;10.220;2023-08-08T05:25:27;100431.94;;;22.67;49.43
11395;BME280;5753;54.402;10.220;2023-08-08T05:27:53;100438.50;;;21.88;51.55
11395;BME280;5753;54.402;10.220;2023-08-08T05:30:19;100447.72;;;20.72;53.93
11395;BME280;5753;54.402;10.220;2023-08-08T05:32:45;100431.50;;;21.89;51.32
11395;BME280;5753;54.402;10.220;2023-08-08T05:35:11;100443.75;;;21.88;51.24
11395;BME280;5753;54.402;10.220;2023-08-08T05:37:37;100446.84;;;21.99;51.16
11395;BME280;5753;54.402;10.220;2023-08-08T05:40:04;100465.09;;;21.29;52.40
11395;BME280;5753;54.402;10.220;2023-08-08T05:42:32;100453.59;;;22.07;51.04
11395;BME280;5753;54.402;10.220;2023-08-08T05:44:58;100452.78;;;21.81;50.81
11395;BME280;5753;54.402;10.220;2023-08-08T05:47:24;100448.00;;;22.16;50.55
11395;BME280;5753;54.402;10.220;2023-08-08T05:49:50;100434.16;;;23.00;48.90
11395;BME280;5753;54.402;10.220;2023-08-08T05:52:17;100439.75;;;22.02;50.97
11395;BME280;5753;54.402;10.220;2023-08-08T05:54:43;100433.28;;;23.21;48.88
11395;BME280;5753;54.402;10.220;2023-08-08T05:57:09;100426.56;;;23.34;48.37
11395;BME280;5753;54.402;10.220;2023-08-08T05:59:35;100435.94;;;23.80;47.91
11395;BME280;5753;54.402;10.220;2023-08-08T06:02:01;100433.59;;;23.34;48.57
11395;BME280;5753;54.402;10.220;2023-08-08T06:04:27;100428.44;;;23.51;49.21
11395;BME280;5753;54.402;10.220;2023-08-08T06:06:53;100447.97;;;22.39;51.48
11395;BME280;5753;54.402;10.220;2023-08-08T06:09:19;100438.88;;;22.48;51.58
11395;BME280;5753;54.402;10.220;2023-08-08T06:11:46;100438.97;;;22.67;50.75
11395;BME280;5753;54.402;10.220;2023-08-08T06:14:12;100438.03;;;22.47;52.51
11395;BME280;5753;54.402;10.220;2023-08-08T06:16:39;100439.50;;;22.09;54.55
11395;BME280;5753;54.402;10.220;2023-08-08T06:19:05;100446.38;;;21.40;55.72
11395;BME280;5753;54.402;10.220;2023-08-08T06:21:31;100446.31;;;21.15;58.03
11395;BME280;5753;54.402;10.220;2023-08-08T06:23:57;100451.47;;;20.92;59.63
11395;BME280;5753;54.402;10.220;2023-08-08T06:26:24;100447.34;;;21.11;59.73
11395;BME280;5753;54.402;10.220;2023-08-08T06:28:50;100444.38;;;20.41;62.78
11395;BME280;5753;54.402;10.220;2023-08-08T06:31:17;100443.72;;;20.03;64.54
11395;BME280;5753;54.402;10.220;2023-08-08T06:33:44;100440.31;;;20.29;62.56
11395;BME280;5753;54.402;10.220;2023-08-08T06:36:10;100440.75;;;20.45;62.18
11395;BME280;5753;54.402;10.220;2023-08-08T06:38:36;100446.47;;;21.62;59.58
11395;BME280;5753;54.402;10.220;2023-08-08T06:41:06;100454.63;;;21.29;59.64
11395;BME280;5753;54.402;10.220;2023-08-08T06:43:32;100449.94;;;20.58;62.48
11395;BME280;5753;54.402;10.220;2023-08-08T06:45:58;100450.34;;;22.23;58.31
11395;BME280;5753;54.402;10.220;2023-08-08T06:48:24;100443.22;;;22.04;57.50
11395;BME280;5753;54.402;10.220;2023-08-08T06:50:50;100454.22;;;21.65;58.20
11395;BME280;5753;54.402;10.220;2023-08-08T06:53:16;100455.50;;;21.78;58.90
11395;BME280;5753;54.402;10.220;2023-08-08T06:55:42;100443.91;;;21.35;59.71
11395;BME280;5753;54.402;10.220;2023-08-08T06:58:08;100431.06;;;22.24;58.44
11395;BME280;5753;54.402;10.220;2023-08-08T07:00:34;100431.06;;;22.24;57.79
11395;BME280;5753;54.402;10.220;2023-08-08T07:03:00;100435.81;;;22.58;58.16
11395;BME280;5753;54.402;10.220;2023-08-08T07:05:26;100431.44;;;22.81;55.73
11395;BME280;5753;54.402;10.220;2023-08-08T07:07:53;100424.00;;;23.33;56.17
11395;BME280;5753;54.402;10.220;2023-08-08T07:10:19;100424.53;;;23.20;55.55
11395;BME280;5753;54.402;10.220;2023-08-08T07:12:46;100427.38;;;22.50;57.34
11395;BME280;5753;54.402;10.220;2023-08-08T07:15:12;100423.31;;;22.43;57.54
11395;BME280;5753;54.402;10.220;2023-08-08T07:17:38;100411.69;;;23.13;57.47
11395;BME280;5753;54.402;10.220;2023-08-08T07:20:05;100408.19;;;23.73;54.57
11395;BME280;5753;54.402;10.220;2023-08-08T07:22:32;100414.53;;;24.26;52.41
11395;BME280;5753;54.402;10.220;2023-08-08T07:24:58;100408.63;;;23.83;53.14
11395;BME280;5753;54.402;10.220;2023-08-08T07:27:27;100396.94;;;23.89;52.63
11395;BME280;5753;54.402;10.220;2023-08-08T07:29:53;100392.41;;;23.73;53.28
11395;BME280;5753;54.402;10.220;2023-08-08T07:32:19;100385.41;;;23.91;53.90
11395;BME280;5753;54.402;10.220;2023-08-08T07:34:45;100397.44;;;24.34;51.19
11395;BME280;5753;54.402;10.220;2023-08-08T07:37:11;100384.00;;;25.11;50.14
11395;BME280;5753;54.402;10.220;2023-08-08T07:39:37;100383.00;;;24.95;50.30
11395;BME280;5753;54.402;10.220;2023-08-08T07:42:04;100400.41;;;23.50;54.80
11395;BME280;5753;54.402;10.220;2023-08-08T07:44:30;100405.03;;;21.22;60.38
11395;BME280;5753;54.402;10.220;2023-08-08T07:46:57;100410.91;;;22.25;61.29
11395;BME280;5753;54.402;10.220;2023-08-08T07:49:23;100415.25;;;21.79;61.81
11395;BME280;5753;54.402;10.220;2023-08-08T07:51:49;100425.19;;;22.61;59.92
11395;BME280;5753;54.402;10.220;2023-08-08T07:54:15;100412.94;;;21.47;60.68
11395;BME280;5753;54.402;10.220;2023-08-08T07:56:42;100429.25;;;22.02;59.96
11395;BME280;5753;54.402;10.220;2023-08-08T07:59:08;100427.50;;;22.47;59.29
11395;BME280;5753;54.402;10.220;2023-08-08T08:01:35;100412.41;;;21.60;61.73
11395;BME280;5753;54.402;10.220;2023-08-08T08:04:02;100419.63;;;21.30;63.05
11395;BME280;5753;54.402;10.220;2023-08-08T08:06:28;100418.34;;;22.79;61.04
11395;BME280;5753;54.402;10.220;2023-08-08T08:08:54;100404.59;;;22.73;60.89
11395;BME280;5753;54.402;10.220;2023-08-08T08:11:21;100400.56;;;23.06;57.69
11395;BME280;5753;54.402;10.220;2023-08-08T08:13:47;100404.91;;;22.87;57.68
11395;BME280;5753;54.402;10.220;2023-08-08T08:16:13;100402.50;;;22.59;58.71
11395;BME280;5753;54.402;10.220;2023-08-08T08:18:39;100397.78;;;24.08;54.94
11395;BME280;5753;54.402;10.220;2023-08-08T08:21:05;100391.09;;;25.26;51.59
11395;BME280;5753;54.402;10.220;2023-08-08T08:23:32;100382.44;;;25.40;51.30
11395;BME280;5753;54.402;10.220;2023-08-08T08:25:58;100386.97;;;25.38;50.69
11395;BME280;5753;54.402;10.220;2023-08-08T08:28:26;100398.13;;;25.43;51.37
11395;BME280;5753;54.402;10.220;2023-08-08T08:30:52;100394.59;;;25.60;50.10
11395;BME280;5753;54.402;10.220;2023-08-08T08:33:19;100408.59;;;23.44;53.76
11395;BME280;5753;54.402;10.220;2023-08-08T08:35:45;100396.25;;;23.26;56.10
11395;BME280;5753;54.402;10.220;2023-08-08T08:38:12;100400.06;;;22.98;57.80
11395;BME280;5753;54.402;10.220;2023-08-08T08:40:39;100416.25;;;21.75;57.87
11395;BME280;5753;54.402;10.220;2023-08-08T08:43:07;100405.03;;;20.97;57.83
11395;BME280;5753;54.402;10.220;2023-08-08T08:45:37;100400.47;;;21.77;57.41
11395;BME280;5753;54.402;10.220;2023-08-08T08:48:10;100395.47;;;22.16;54.48
11395;BME280;5753;54.402;10.220;2023-08-08T08:50:38;100393.72;;;22.60;54.89
11395;BME280;5753;54.402;10.220;2023-08-08T08:53:05;100389.44;;;23.40;52.85
11395;BME280;5753;54.402;10.220;2023-08-08T08:55:32;100398.59;;;23.11;52.60
11395;BME280;5753;54.402;10.220;2023-08-08T08:57:58;100392.41;;;22.70;53.43
11395;BME280;5753;54.402;10.220;2023-08-08T09:00:25;100406.19;;;22.77;54.24
11395;BME280;5753;54.402;10.220;2023-08-08T09:02:52;100394.41;;;22.43;56.11
11395;BME280;5753;54.402;10.220;2023-08-08T09:05:19;100390.84;;;21.77;57.33
11395;BME280;5753;54.402;10.220;2023-08-08T09:07:48;100392.28;;;22.95;55.45
11395;BME280;5753;54.402;10.220;2023-08-08T09:10:16;100395.28;;;22.64;56.40
11395;BME280;5753;54.402;10.220;2023-08-08T09:12:43;100379.88;;;24.16;52.43
11395;BME280;5753;54.402;10.220;2023-08-08T09:15:11;100371.38;;;23.33;53.30
11395;BME280;5753;54.402;10.220;2023-08-08T09:17:41;100375.88;;;22.90;54.21
11395;BME280;5753;54.402;10.220;2023-08-08T09:20:09;100372.56;;;23.05;53.51
11395;BME280;5753;54.402;10.220;2023-08-08T09:22:37;100376.44;;;23.17;52.79
11395;BME280;5753;54.402;10.220;2023-08-08T09:25:04;100379.47;;;22.87;54.91
11395;BME280;5753;54.402;10.220;2023-08-08T09:27:31;100372.47;;;21.77;55.32
11395;BME280;5753;54.402;10.220;2023-08-08T09:29:57;100375.41;;;21.91;53.62
11395;BME280;5753;54.402;10.220;2023-08-08T09:32:28;100385.00;;;21.92;55.81
11395;BME280;5753;54.402;10.220;2023-08-08T09:34:54;100379.84;;;22.56;54.23
11395;BME280;5753;54.402;10.220;2023-08-08T09:37:21;100391.38;;;22.09;56.32
11395;BME280;5753;54.402;10.220;2023-08-08T09:39:56;100397.19;;;22.17;57.13
11395;BME280;5753;54.402;10.220;2023-08-08T09:42:23;100382.53;;;21.41;57.16
11395;BME280;5753;54.402;10.220;2023-08-08T09:44:51;100376.00;;;22.21;54.60
11395;BME280;5753;54.402;10.220;2023-08-08T09:47:17;100371.19;;;22.11;55.44
11395;BME280;5753;54.402;10.220;2023-08-08T09:49:43;100370.28;;;21.65;56.40
11395;BME280;5753;54.402;10.220;2023-08-08T09:52:11;100368.34;;;21.70;57.29
11395;BME280;5753;54.402;10.220;2023-08-08T09:54:40;100371.06;;;23.00;56.57
11395;BME280;5753;54.402;10.220;2023-08-08T09:57:07;100373.22;;;22.48;55.82
11395;BME280;5753;54.402;10.220;2023-08-08T09:59:35;100376.66;;;23.33;55.09
11395;BME280;5753;54.402;10.220;2023-08-08T10:02:01;100373.16;;;23.12;54.18
11395;BME280;5753;54.402;10.220;2023-08-08T10:04:27;100355.06;;;23.65;53.10
11395;BME280;5753;54.402;10.220;2023-08-08T10:06:54;100365.84;;;24.52;50.31
11395;BME280;5753;54.402;10.220;2023-08-08T10:09:20;100367.41;;;23.82;51.57
11395;BME280;5753;54.402;10.220;2023-08-08T10:11:47;100370.03;;;24.38;50.81
11395;BME280;5753;54.402;10.220;2023-08-08T10:14:14;100367.88;;;25.33;49.86
11395;BME280;5753;54.402;10.220;2023-08-08T10:16:42;100356.75;;;25.10;49.42
11395;BME280;5753;54.402;10.220;2023-08-08T10:19:10;100352.47;;;25.25;48.76
11395;BME280;5753;54.402;10.220;2023-08-08T10:21:40;100347.06;;;25.44;47.09
11395;BME280;5753;54.402;10.220;2023-08-08T10:24:08;100355.56;;;25.66;45.72
11395;BME280;5753;54.402;10.220;2023-08-08T10:26:50;100360.84;;;25.49;45.69
11395;BME280;5753;54.402;10.220;2023-08-08T10:29:20;100344.44;;;26.09;44.48
11395;BME280;5753;54.402;10.220;2023-08-08T10:32:21;100356.50;;;26.28;44.28
11395;BME280;5753;54.402;10.220;2023-08-08T10:34:47;100371.41;;;25.49;51.37
11395;BME280;5753;54.402;10.220;2023-08-08T10:37:17;100349.25;;;25.36;51.91
11395;BME280;5753;54.402;10.220;2023-08-08T10:42:20;100353.34;;;23.44;56.53
11395;BME280;5753;54.402;10.220;2023-08-08T10:44:57;100368.69;;;23.14;53.57
11395;BME280;5753;54.402;10.220;2023-08-08T10:47:31;100368.81;;;23.31;54.61
11395;BME280;5753;54.402;10.220;2023-08-08T10:55:33;100384.53;;;22.28;57.25
11395;BME280;5753;54.402;10.220;2023-08-08T10:58:08;100379.84;;;22.13;57.18
11395;BME280;5753;54.402;10.220;2023-08-08T11:00:36;100372.47;;;22.44;55.69
11395;BME280;5753;54.402;10.220;2023-08-08T11:03:05;100369.09;;;22.19;58.23
11395;BME280;5753;54.402;10.220;2023-08-08T11:05:32;100356.88;;;23.63;56.48
11395;BME280;5753;54.402;10.220;2023-08-08T11:08:00;100367.63;;;23.96;56.76
11395;BME280;5753;54.402;10.220;2023-08-08T11:10:26;100373.88;;;24.85;57.63
11395;BME280;5753;54.402;10.220;2023-08-08T11:12:58;100371.72;;;24.39;55.57
11395;BME280;5753;54.402;10.220;2023-08-08T11:15:25;100372.69;;;24.56;53.57
11395;BME280;5753;54.402;10.220;2023-08-08T11:17:53;100377.53;;;26.46;48.44
11395;BME280;5753;54.402;10.220;2023-08-08T11:20:21;100352.41;;;25.09;50.24
11395;BME280;5753;54.402;10.220;2023-08-08T11:22:55;100355.06;;;25.09;50.90
11395;BME280;5753;54.402;10.220;2023-08-08T11:25:22;100378.16;;;25.88;51.53
11395;BME280;5753;54.402;10.220;2023-08-08T11:27:52;100378.31;;;26.00;48.98
11395;BME280;5753;54.402;10.220;2023-08-08T11:30:19;100372.47;;;24.77;49.13
11395;BME280;5753;54.402;10.220;2023-08-08T11:32:47;100379.53;;;25.62;47.85
11395;BME280;5753;54.402;10.220;2023-08-08T11:35:17;100386.50;;;25.96;48.17
11395;BME280;5753;54.402;10.220;2023-08-08T11:37:45;100391.00;;;24.93;51.63
11395;BME280;5753;54.402;10.220;2023-08-08T11:40:13;100410.16;;;24.06;52.72
11395;BME280;5753;54.402;10.220;2023-08-08T11:42:40;100414.81;;;24.74;51.63
11395;BME280;5753;54.402;10.220;2023-08-08T11:45:08;100421.22;;;23.15;54.81
11395;BME280;5753;54.402;10.220;2023-08-08T11:47:35;100444.69;;;20.29;59.97
11395;BME280;5753;54.402;10.220;2023-08-08T11:50:05;100449.50;;;20.15;100.00
11395;BME280;5753;54.402;10.220;2023-08-08T11:52:32;100417.19;;;19.86;89.70
11395;BME280;5753;54.402;10.220;2023-08-08T11:55:01;100433.69;;;21.53;75.84
11395;BME280;5753;54.402;10.220;2023-08-08T11:57:33;100431.44;;;21.90;75.41
11395;BME280;5753;54.402;10.220;2023-08-08T11:59:59;100422.22;;;25.02;66.64
11395;BME280;5753;54.402;10.220;2023-08-08T12:02:27;100418.06;;;24.43;67.62
11395;BME280;5753;54.402;10.220;2023-08-08T12:04:53;100414.38;;;24.47;62.66
11395;BME280;5753;54.402;10.220;2023-08-08T12:07:19;100418.31;;;24.20;65.35
11395;BME280;5753;54.402;10.220;2023-08-08T12:09:47;100420.91;;;25.79;58.93
11395;BME280;5753;54.402;10.220;2023-08-08T12:12:14;100410.00;;;25.85;60.32
11395;BME280;5753;54.402;10.220;2023-08-08T12:14:42;100439.56;;;24.89;62.17
11395;BME280;5753;54.402;10.220;2023-08-08T12:17:09;100444.63;;;23.42;67.83
11395;BME280;5753;54.402;10.220;2023-08-08T12:19:35;100452.66;;;21.84;67.60
11395;BME280;5753;54.402;10.220;2023-08-08T12:22:01;100442.22;;;21.34;72.71
11395;BME280;5753;54.402;10.220;2023-08-08T12:24:27;100436.97;;;22.29;66.26
11395;BME280;5753;54.402;10.220;2023-08-08T12:26:53;100431.91;;;22.47;69.02
11395;BME280;5753;54.402;10.220;2023-08-08T12:29:20;100453.66;;;22.50;66.04
11395;BME280;5753;54.402;10.220;2023-08-08T12:31:46;100439.50;;;23.79;63.68
11395;BME280;5753;54.402;10.220;2023-08-08T12:34:12;100432.78;;;23.72;64.97
11395;BME280;5753;54.402;10.220;2023-08-08T12:36:38;100431.50;;;26.10;53.77
11395;BME280;5753;54.402;10.220;2023-08-08T12:39:05;100413.88;;;26.11;53.38
11395;BME280;5753;54.402;10.220;2023-08-08T12:41:31;100421.25;;;26.99;51.06
11395;BME280;5753;54.402;10.220;2023-08-08T12:43:57;100423.31;;;26.30;49.76
11395;BME280;5753;54.402;10.220;2023-08-08T12:46:23;100409.00;;;25.37;51.45
11395;BME280;5753;54.402;10.220;2023-08-08T12:48:50;100408.38;;;27.79;49.47
11395;BME280;5753;54.402;10.220;2023-08-08T12:51:16;100405.13;;;28.58;46.27
11395;BME280;5753;54.402;10.220;2023-08-08T12:53:43;100449.59;;;26.18;51.66
11395;BME280;5753;54.402;10.220;2023-08-08T12:56:09;100434.81;;;21.46;67.51
11395;BME280;5753;54.402;10.220;2023-08-08T12:58:35;100419.63;;;23.72;58.37